Time;durP1;ratioP1;P1;durP2;ratioP2;P2;SDS_P1;SDS_P2;PMS_P1;PMS_P2;Temp;Humidity;BMP_temperature;BMP_pressure;BME280_temperature;BME280_humidity;BME280_pressure;Samples;Min_cycle;Max_cycle;Signal;HPM_P1;HPM_P2
2021/09/16 00:01:29;;;;;;;0.20;0.20;;;;;;;22.73;42.24;98093.02;114136;1224;137336;-80
2021/09/16 00:04:55;;;;;;;0.30;0.30;;;;;;;22.71;42.68;98086.05;114069;1231;136467;-80
2021/09/16 00:08:33;;;;;;;0.20;0.20;;;;;;;22.67;42.89;98082.92;114160;1221;137383;-80
2021/09/16 00:29:16;;;;;;;0.30;0.30;;;;;;;22.18;44.65;98078.32;114210;1221;137445;-79
2021/09/16 00:32:42;;;;;;;0.40;0.40;;;;;;;22.11;44.74;98075.30;114053;1224;137427;-80
2021/09/16 00:36:11;;;;;;;0.30;0.30;;;;;;;22.06;44.89;98077.20;114027;1225;137440;-79
2021/09/16 00:39:37;;;;;;;0.20;0.20;;;;;;;22.01;45.11;98082.06;114213;1221;137376;-79
2021/09/16 00:49:49;;;;;;;;;;;;;;;;;;;;;
2021/09/16 00:53:23;;;;;;;0.40;0.40;;;;;;;21.92;44.46;98093.57;113985;1225;137552;-79
2021/09/16 00:56:47;;;;;;;;;;;;;;;;;;;;;
2021/09/16 01:00:15;;;;;;;0.30;0.30;;;;;;;21.90;44.54;98084.10;114031;1225;137525;-79
2021/09/16 01:05:14;;;;;;;0.20;0.20;;;;;;;21.93;44.52;98091.68;114208;1221;137369;-82
2021/09/16 01:07:40;;;;;;;0.20;0.20;;;;;;;21.92;44.66;98090.29;114024;1224;137376;-83
2021/09/16 01:10:09;;;;;;;0.30;0.30;;;;;;;21.92;44.68;98089.65;114070;1221;137748;-83
2021/09/16 01:12:36;;;;;;;0.20;0.20;;;;;;;21.92;44.66;98080.88;114033;1220;137514;-83
2021/09/16 01:15:05;;;;;;;0.40;0.40;;;;;;;21.92;44.68;98081.90;114387;1224;22193;-83
2021/09/16 01:17:30;;;;;;;0.20;0.20;;;;;;;21.92;44.63;98078.14;114334;1220;137569;-83
2021/09/16 01:19:56;;;;;;;0.20;0.20;;;;;;;21.93;44.59;98079.47;114125;1221;137743;-83
2021/09/16 01:22:23;;;;;;;0.30;0.30;;;;;;;21.93;44.60;98076.02;114035;1225;137339;-83
2021/09/16 01:24:49;;;;;;;0.20;0.20;;;;;;;21.93;44.46;98076.41;114059;1219;137516;-83
2021/09/16 01:27:16;;;;;;;0.20;0.20;;;;;;;21.95;44.42;98081.52;114277;1221;22372;-83
2021/09/16 01:29:42;;;;;;;0.20;0.20;;;;;;;21.95;44.39;98083.16;114026;1221;137274;-83
2021/09/16 01:32:08;;;;;;;0.30;0.30;;;;;;;21.96;44.24;98080.96;114067;1221;137428;-83
2021/09/16 01:34:34;;;;;;;0.20;0.20;;;;;;;21.97;44.57;98082.38;114045;1221;137627;-83
2021/09/16 01:37:00;;;;;;;0.20;0.20;;;;;;;21.97;44.81;98083.02;114049;1221;137649;-83
2021/09/16 01:39:25;;;;;;;0.30;0.30;;;;;;;21.97;44.86;98078.79;114237;1231;22764;-82
2021/09/16 01:41:52;;;;;;;0.30;0.30;;;;;;;21.96;45.24;98075.40;114318;1218;137205;-82
2021/09/16 01:44:18;;;;;;;0.30;0.30;;;;;;;21.95;45.58;98075.48;114055;1221;137573;-82
2021/09/16 01:46:44;;;;;;;0.30;0.30;;;;;;;21.92;45.75;98073.59;114321;1218;137637;-82
2021/09/16 01:49:10;;;;;;;0.20;0.20;;;;;;;21.90;46.07;98069.14;114142;1220;138922;-82
2021/09/16 01:51:36;;;;;;;0.30;0.30;;;;;;;21.87;46.40;98072.75;114091;1223;138848;-82
2021/09/16 01:54:03;;;;;;;0.30;0.30;;;;;;;21.83;46.57;98063.26;114227;1219;22345;-82
2021/09/16 01:56:29;;;;;;;0.20;0.20;;;;;;;21.79;46.72;98067.09;114050;1221;137418;-82
2021/09/16 01:58:55;;;;;;;0.30;0.30;;;;;;;21.76;46.88;98065.77;114088;1223;137582;-82
2021/09/16 02:01:21;;;;;;;0.20;0.20;;;;;;;21.72;47.13;98064.13;114316;1220;137627;-82
2021/09/16 02:03:46;;;;;;;0.10;0.10;;;;;;;21.68;47.30;98056.84;114050;1222;137885;-83
2021/09/16 02:06:13;;;;;;;0.20;0.20;;;;;;;21.65;47.55;98056.52;114439;1223;22328;-82
2021/09/16 02:08:38;;;;;;;0.20;0.20;;;;;;;21.60;47.59;98059.41;114058;1219;137330;-82
2021/09/16 02:11:04;;;;;;;0.30;0.30;;;;;;;21.55;47.80;98054.64;114043;1224;137819;-82
2021/09/16 02:13:31;;;;;;;0.20;0.20;;;;;;;21.52;47.71;98054.24;114068;1221;137380;-82
2021/09/16 02:15:56;;;;;;;0.20;0.20;;;;;;;21.48;47.75;98051.65;114278;1220;137571;-82
2021/09/16 02:18:22;;;;;;;0.10;0.10;;;;;;;21.45;47.60;98053.99;114264;1225;22528;-82
2021/09/16 02:20:48;;;;;;;0.30;0.30;;;;;;;21.41;47.55;98051.56;114338;1220;138356;-82
2021/09/16 02:23:13;;;;;;;0.20;0.20;;;;;;;21.38;47.67;98053.44;114158;1218;137648;-82
2021/09/16 02:25:38;;;;;;;0.30;0.30;;;;;;;21.35;47.58;98049.98;114298;1220;137782;-82
2021/09/16 02:28:04;;;;;;;0.20;0.20;;;;;;;21.31;47.63;98050.44;114049;1221;137701;-82
2021/09/16 02:30:30;;;;;;;0.20;0.20;;;;;;;21.28;47.50;98051.52;114208;1219;137602;-82
2021/09/16 02:32:55;;;;;;;0.30;0.30;;;;;;;21.25;47.53;98051.13;114405;1228;23243;-82
2021/09/16 02:35:21;;;;;;;0.30;0.30;;;;;;;21.22;47.56;98048.52;114204;1219;137676;-83
2021/09/16 02:37:46;;;;;;;0.20;0.20;;;;;;;21.20;47.48;98048.37;114328;1220;137622;-83
2021/09/16 02:40:12;;;;;;;0.20;0.20;;;;;;;21.18;47.52;98052.20;114109;1218;137769;-83
2021/09/16 02:42:38;;;;;;;0.20;0.20;;;;;;;21.16;47.54;98047.34;114188;1219;138040;-83
2021/09/16 02:45:06;;;;;;;0.30;0.30;;;;;;;21.14;47.62;98043.17;114310;1225;23087;-83
2021/09/16 02:47:32;;;;;;;0.20;0.20;;;;;;;21.12;47.52;98043.42;114075;1220;137290;-83
2021/09/16 02:49:58;;;;;;;0.30;0.30;;;;;;;21.11;47.27;98047.25;114144;1221;137754;-83
2021/09/16 02:52:24;;;;;;;0.20;0.20;;;;;;;21.10;46.86;98040.82;114061;1221;137632;-83
2021/09/16 02:54:49;;;;;;;0.20;0.20;;;;;;;21.11;46.66;98039.27;114164;1217;137489;-82
2021/09/16 02:57:15;;;;;;;0.30;0.30;;;;;;;21.12;46.69;98040.36;114341;1224;22162;-82
2021/09/16 02:59:40;;;;;;;0.20;0.20;;;;;;;21.12;46.55;98042.88;114310;1219;137703;-82
2021/09/16 03:02:06;;;;;;;0.20;0.20;;;;;;;21.13;46.42;98046.77;114310;1221;137770;-82
2021/09/16 03:04:31;;;;;;;0.20;0.20;;;;;;;21.14;46.23;98037.78;114138;1219;137338;-82
2021/09/16 03:06:56;;;;;;;0.20;0.20;;;;;;;21.16;46.00;98035.91;114321;1219;137589;-82
2021/09/16 03:09:23;;;;;;;0.20;0.20;;;;;;;21.18;46.04;98037.88;114399;1224;22489;-82
2021/09/16 03:11:49;;;;;;;0.30;0.30;;;;;;;21.19;45.99;98038.83;114135;1220;137370;-82
2021/09/16 03:14:15;;;;;;;0.30;0.30;;;;;;;21.19;45.91;98035.78;114130;1218;137505;-82
2021/09/16 03:16:40;;;;;;;0.20;0.20;;;;;;;21.21;46.00;98040.07;114302;1218;137456;-82
2021/09/16 03:19:06;;;;;;;0.30;0.30;;;;;;;21.21;46.12;98043.35;114383;1218;137620;-82
2021/09/16 03:21:31;;;;;;;0.30;0.30;;;;;;;21.21;46.02;98043.20;114320;1219;137667;-83
2021/09/16 03:23:56;;;;;;;0.30;0.30;;;;;;;21.21;45.88;98035.61;114460;1218;22151;-83
2021/09/16 03:26:22;;;;;;;0.30;0.30;;;;;;;21.20;46.33;98036.40;114393;1220;137169;-83
2021/09/16 03:28:47;;;;;;;0.20;0.20;;;;;;;21.19;46.60;98039.84;114305;1223;137360;-83
2021/09/16 03:31:13;;;;;;;0.20;0.20;;;;;;;21.18;47.20;98035.38;114152;1221;138354;-83
2021/09/16 03:33:38;;;;;;;0.20;0.20;;;;;;;21.16;47.60;98030.75;114315;1219;137859;-83
2021/09/16 03:36:04;;;;;;;0.20;0.20;;;;;;;21.12;47.50;98033.55;114483;1222;22262;-82
2021/09/16 03:38:30;;;;;;;0.20;0.20;;;;;;;21.09;47.71;98034.80;114325;1218;137163;-82
2021/09/16 03:40:56;;;;;;;0.30;0.30;;;;;;;21.05;47.79;98030.17;114113;1217;137522;-82
2021/09/16 03:43:22;;;;;;;0.40;0.40;;;;;;;21.01;48.00;98029.08;114302;1220;137420;-82
2021/09/16 03:45:48;;;;;;;0.40;0.40;;;;;;;20.97;48.24;98027.41;114300;1219;137541;-81
2021/09/16 03:48:14;;;;;;;0.30;0.30;;;;;;;20.91;48.33;98032.80;114426;1219;22305;-81
2021/09/16 03:50:40;;;;;;;0.30;0.30;;;;;;;20.87;48.51;98037.87;114355;1218;136152;-81
2021/09/16 03:53:06;;;;;;;0.20;0.20;;;;;;;20.82;48.92;98037.23;114159;1221;138000;-82
2021/09/16 03:55:31;;;;;;;0.30;0.30;;;;;;;20.79;49.17;98037.84;114037;1222;137585;-83
2021/09/16 03:57:57;;;;;;;0.20;0.20;;;;;;;20.76;49.10;98032.59;114189;1226;136583;-83
2021/09/16 04:00:22;;;;;;;0.20;0.20;;;;;;;20.73;49.06;98030.06;114357;1224;23003;-83
2021/09/16 04:02:48;;;;;;;0.30;0.30;;;;;;;20.69;49.06;98020.84;114300;1224;136158;-83
2021/09/16 04:05:14;;;;;;;0.30;0.30;;;;;;;20.66;48.92;98016.91;114318;1219;137451;-83
2021/09/16 04:07:40;;;;;;;0.30;0.30;;;;;;;20.63;48.94;98015.34;114329;1219;137431;-83
2021/09/16 04:10:07;;;;;;;0.30;0.30;;;;;;;20.60;49.02;98010.23;114074;1221;137822;-82
2021/09/16 04:12:34;;;;;;;0.30;0.30;;;;;;;20.56;48.96;98009.21;114140;1212;137646;-82
2021/09/16 04:14:59;;;;;;;0.30;0.30;;;;;;;20.54;49.00;98008.73;114182;1219;22206;-83
2021/09/16 04:17:25;;;;;;;0.20;0.20;;;;;;;20.51;48.98;98010.05;114393;1219;137332;-84
2021/09/16 04:19:51;;;;;;;0.30;0.30;;;;;;;20.48;49.10;98012.59;114301;1221;138050;-83
2021/09/16 04:22:16;;;;;;;0.20;0.20;;;;;;;20.44;49.21;98007.86;114291;1218;137668;-83
2021/09/16 04:24:42;;;;;;;0.30;0.30;;;;;;;20.40;49.19;98002.46;114229;1220;137618;-83
2021/09/16 04:27:09;;;;;;;0.30;0.30;;;;;;;20.36;49.25;98001.66;114439;1229;23378;-83
2021/09/16 04:29:35;;;;;;;0.20;0.20;;;;;;;20.32;49.23;98004.77;114035;1221;138129;-83
2021/09/16 04:32:00;;;;;;;0.20;0.20;;;;;;;20.29;49.31;98007.95;114135;1218;137648;-83
2021/09/16 04:34:25;;;;;;;0.20;0.20;;;;;;;20.25;49.42;98009.96;114302;1219;137503;-83
2021/09/16 04:36:51;;;;;;;0.20;0.20;;;;;;;20.23;49.53;98015.33;114132;1222;137499;-83
2021/09/16 04:39:16;;;;;;;0.20;0.20;;;;;;;20.20;49.72;98022.52;114146;1230;22332;-83
2021/09/16 04:41:42;;;;;;;0.20;0.20;;;;;;;20.18;49.69;98023.13;114085;1221;137876;-83
2021/09/16 04:44:07;;;;;;;0.30;0.30;;;;;;;20.16;49.84;98027.02;114216;1219;137691;-83
2021/09/16 04:46:33;;;;;;;0.40;0.40;;;;;;;20.12;50.07;98037.07;114180;1220;137662;-83
2021/09/16 04:48:58;;;;;;;0.60;0.60;;;;;;;20.09;50.19;98039.62;114173;1221;138118;-83
2021/09/16 04:51:23;;;;;;;0.70;0.70;;;;;;;20.06;50.43;98040.14;114390;1228;22265;-83
2021/09/16 04:53:49;;;;;;;0.40;0.40;;;;;;;20.03;50.73;98045.76;114372;1219;137092;-83
2021/09/16 04:56:15;;;;;;;0.30;0.30;;;;;;;20.01;50.65;98052.06;114358;1218;137447;-81
2021/09/16 04:58:40;;;;;;;0.60;0.60;;;;;;;20.00;50.69;98058.52;114351;1218;137399;-83
2021/09/16 05:01:06;;;;;;;0.20;0.20;;;;;;;20.00;50.62;98056.97;114305;1226;137627;-83
2021/09/16 05:03:31;;;;;;;0.30;0.30;;;;;;;19.99;50.67;98059.85;114274;1218;138018;-83
2021/09/16 05:05:57;;;;;;;0.30;0.30;;;;;;;19.97;50.98;98056.64;114167;1225;22316;-82
2021/09/16 05:08:22;;;;;;;0.30;0.30;;;;;;;19.95;50.95;98048.97;114241;1219;137182;-83
2021/09/16 05:10:48;;;;;;;0.70;0.70;;;;;;;19.92;51.24;98043.48;114290;1223;137407;-83
2021/09/16 05:13:13;;;;;;;0.60;0.60;;;;;;;19.90;51.55;98041.74;114228;1221;137650;-82
2021/09/16 05:15:39;;;;;;;0.70;0.70;;;;;;;19.89;51.66;98040.10;114022;1228;137964;-82
2021/09/16 05:18:04;;;;;;;0.40;0.40;;;;;;;19.88;51.87;98044.08;114321;1224;22386;-81
2021/09/16 05:20:30;;;;;;;0.40;0.40;;;;;;;19.87;52.00;98038.98;114268;1221;137573;-83
2021/09/16 05:22:55;;;;;;;0.40;0.40;;;;;;;19.87;52.04;98038.92;114065;1228;137544;-84
2021/09/16 05:25:21;;;;;;;0.20;0.20;;;;;;;19.88;51.82;98043.90;114245;1221;137555;-85
2021/09/16 05:27:46;;;;;;;0.20;0.20;;;;;;;19.92;52.08;98044.88;114205;1220;137541;-84
2021/09/16 05:30:12;;;;;;;0.20;0.20;;;;;;;20.00;52.03;98047.14;114417;1222;22802;-84
2021/09/16 05:32:38;;;;;;;0.30;0.30;;;;;;;20.07;52.07;98044.45;114278;1222;137199;-85
2021/09/16 05:35:07;;;;;;;0.40;0.40;;;;;;;20.17;51.79;98047.16;114180;1222;137713;-84
2021/09/16 05:37:33;;;;;;;0.20;0.20;;;;;;;20.27;51.62;98053.87;114312;1222;137816;-85
2021/09/16 05:39:59;;;;;;;0.30;0.30;;;;;;;20.38;51.62;98053.39;113930;1222;137725;-85
2021/09/16 05:42:26;;;;;;;0.20;0.20;;;;;;;20.48;51.43;98056.36;114365;1222;22387;-84
2021/09/16 05:44:52;;;;;;;0.20;0.20;;;;;;;20.58;51.42;98057.05;114170;1218;137196;-84
2021/09/16 05:47:17;;;;;;;0.60;0.60;;;;;;;20.68;51.19;98058.02;114169;1219;138133;-84
2021/09/16 05:49:43;;;;;;;0.30;0.30;;;;;;;20.76;51.10;98053.70;114165;1220;137348;-84
2021/09/16 05:52:08;;;;;;;0.40;0.40;;;;;;;20.85;50.98;98055.52;114077;1221;137938;-84
2021/09/16 05:54:34;;;;;;;0.40;0.40;;;;;;;20.94;50.83;98053.52;114246;1219;137454;-86
2021/09/16 05:56:59;;;;;;;0.20;0.20;;;;;;;21.03;50.79;98056.29;114287;1225;22198;-87
2021/09/16 05:59:25;;;;;;;0.30;0.30;;;;;;;21.10;50.89;98060.14;114165;1221;137393;-87
2021/09/16 06:01:50;;;;;;;0.40;0.40;;;;;;;21.13;50.95;98059.22;114312;1218;137664;-87
2021/09/16 06:04:16;;;;;;;0.50;0.50;;;;;;;21.15;50.95;98059.06;114242;1219;138405;-87
2021/09/16 06:06:42;;;;;;;0.40;0.40;;;;;;;21.18;51.16;98058.61;114251;1218;137835;-87
2021/09/16 06:09:07;;;;;;;0.30;0.30;;;;;;;21.22;51.29;98055.96;114294;1219;22365;-87
2021/09/16 06:11:33;;;;;;;0.30;0.30;;;;;;;21.26;51.37;98055.04;114290;1220;137260;-87
2021/09/16 06:13:59;;;;;;;0.40;0.40;;;;;;;21.32;51.50;98054.82;114256;1218;137653;-87
2021/09/16 06:16:24;;;;;;;0.70;0.70;;;;;;;21.38;51.25;98051.96;114252;1219;137555;-87
2021/09/16 06:18:51;;;;;;;0.40;0.40;;;;;;;21.46;51.32;98048.83;114259;1218;137673;-87
2021/09/16 06:21:18;;;;;;;0.30;0.30;;;;;;;21.53;51.28;98043.21;114291;1226;22359;-87
2021/09/16 06:23:43;;;;;;;0.30;0.30;;;;;;;21.61;51.16;98048.69;114237;1219;137268;-87
2021/09/16 06:26:09;;;;;;;0.30;0.30;;;;;;;21.70;50.70;98051.98;114197;1221;137924;-87
2021/09/16 06:28:35;;;;;;;0.50;0.50;;;;;;;21.78;49.95;98050.89;114170;1219;137558;-87
2021/09/16 06:31:01;;;;;;;0.40;0.40;;;;;;;21.87;48.91;98049.24;114289;1219;137863;-88
2021/09/16 06:33:26;;;;;;;0.40;0.40;;;;;;;21.95;47.97;98049.87;114340;1218;22333;-88
2021/09/16 06:35:56;;;;;;;0.40;0.40;;;;;;;22.03;47.29;98050.56;114152;1221;138712;-89
2021/09/16 06:44:32;;;;;;;0.40;0.40;;;;;;;22.34;46.45;98034.25;110876;1218;137839;-89
2021/09/16 06:53:47;;;;;;;0.40;0.40;;;;;;;22.66;45.53;98036.73;113262;1219;138516;-90
2021/09/16 06:56:15;;;;;;;0.40;0.40;;;;;;;22.75;45.43;98038.98;114280;1218;137353;-88
2021/09/16 06:59:00;;;;;;;0.30;0.30;;;;;;;22.80;44.98;98042.34;114311;1219;137453;-88
2021/09/16 07:01:54;;;;;;;0.20;0.20;;;;;;;22.83;44.79;98049.14;114304;1219;137888;-91
2021/09/16 07:07:53;;;;;;;0.30;0.30;;;;;;;22.92;44.39;98069.77;101471;1216;136717;-92
2021/09/16 07:11:06;;;;;;;0.30;0.30;;;;;;;23.02;44.17;98077.40;110881;1216;138103;-90
2021/09/16 07:23:01;;;;;;;0.20;0.20;;;;;;;23.36;44.29;98097.41;106041;1216;137467;-91
2021/09/16 07:31:54;;;;;;;0.30;0.30;;;;;;;23.63;43.87;98112.02;96339;1216;137632;-90
2021/09/16 07:41:15;;;;;;;0.30;0.30;;;;;;;23.92;43.01;98113.09;111112;1216;23071;-90
2021/09/16 07:44:01;;;;;;;0.40;0.40;;;;;;;24.01;42.89;98120.02;114454;1218;137284;-88
2021/09/16 07:47:06;;;;;;;0.30;0.30;;;;;;;24.09;42.88;98125.14;114218;1219;137605;-89
2021/09/16 07:50:12;;;;;;;0.30;0.30;;;;;;;24.19;42.78;98124.98;114392;1219;137696;-90
2021/09/16 07:55:42;;;;;;;0.50;0.50;;;;;;;24.42;42.57;98118.59;110873;1215;137383;-88
2021/09/16 09:15:10;;;;;;;0.40;0.40;;;;;;;28.16;37.14;98102.20;114238;1220;153195;-89
2021/09/16 09:17:44;;;;;;;0.40;0.40;;;;;;;28.36;36.30;98105.50;114084;1221;137307;-86
2021/09/16 09:20:11;;;;;;;0.60;0.60;;;;;;;28.48;35.83;98102.45;114093;1221;138038;-86
2021/09/16 10:35:55;;;;;;;0.50;0.50;;;;;;;30.43;31.77;98089.63;96713;1225;23175;-91
2021/09/16 10:39:07;;;;;;;0.50;0.50;;;;;;;30.40;31.33;98087.50;114319;1224;137387;-84
2021/09/16 11:02:59;;;;;;;0.70;0.70;;;;;;;30.99;30.84;98085.80;105751;1222;137041;-89
2021/09/16 11:05:39;;;;;;;0.50;0.50;;;;;;;31.22;30.58;98086.71;114164;1221;137330;-86
2021/09/16 11:08:05;;;;;;;0.60;0.60;;;;;;;31.47;30.33;98089.43;113989;1219;137695;-88
2021/09/16 11:10:30;;;;;;;0.50;0.50;;;;;;;31.69;30.55;98091.80;113947;1221;137585;-85
2021/09/16 11:13:02;;;;;;;0.50;0.50;;;;;;;31.91;29.62;98087.61;114231;1221;137802;-86
2021/09/16 11:15:37;;;;;;;0.70;0.70;;;;;;;31.99;29.21;98084.66;114176;1218;137553;-87
2021/09/16 11:18:04;;;;;;;0.70;0.70;;;;;;;31.95;29.08;98082.36;114250;1217;22315;-87
2021/09/16 11:23:36;;;;;;;0.60;0.60;;;;;;;31.78;29.17;98087.48;103839;1220;136634;-92
2021/09/16 11:26:22;;;;;;;0.60;0.60;;;;;;;31.65;29.43;98083.88;114419;1224;22997;-87
2021/09/16 11:29:09;;;;;;;0.80;0.80;;;;;;;31.59;29.78;98083.85;114236;1218;137520;-87
2021/09/16 11:32:01;;;;;;;0.50;0.50;;;;;;;31.58;29.53;98084.63;114062;1221;137416;-88
2021/09/16 11:35:17;;;;;;;0.60;0.60;;;;;;;31.59;29.61;98072.51;114239;1221;137353;-89
2021/09/16 11:37:51;;;;;;;0.70;0.70;;;;;;;31.60;29.61;98069.30;114235;1220;137504;-87
2021/09/16 11:40:26;;;;;;;0.70;0.70;;;;;;;31.58;29.77;98070.23;114185;1221;137980;-85
2021/09/16 11:43:39;;;;;;;0.60;0.60;;;;;;;31.62;29.40;98067.84;114205;1227;137847;-91
2021/09/16 11:46:23;;;;;;;0.70;0.70;;;;;;;31.65;29.41;98071.64;105857;1221;137488;-87
2021/09/16 11:48:48;;;;;;;0.70;0.70;;;;;;;31.83;29.40;98067.83;114178;1224;137718;-85
2021/09/16 11:51:14;;;;;;;0.60;0.60;;;;;;;32.08;29.13;98061.77;114127;1221;22377;-86
2021/09/16 11:53:40;;;;;;;0.70;0.70;;;;;;;32.29;28.76;98060.90;114217;1227;137192;-85
2021/09/16 11:56:07;;;;;;;0.80;0.80;;;;;;;32.43;28.44;98061.83;114011;1224;137509;-85
2021/09/16 11:58:35;;;;;;;0.60;0.60;;;;;;;32.47;28.24;98054.73;114137;1218;137764;-86
2021/09/16 12:01:04;;;;;;;0.70;0.70;;;;;;;32.46;28.53;98056.68;114046;1221;137811;-85
2021/09/16 13:04:08;;;;;;;0.70;0.70;;;;;;;35.53;24.30;98038.92;96736;1221;139322;-88
2021/09/16 13:06:33;;;;;;;0.80;0.80;;;;;;;35.66;24.42;98035.81;114250;1224;22310;-88
2021/09/16 13:08:59;;;;;;;0.90;0.90;;;;;;;35.94;24.00;98027.13;114184;1228;22337;-87
2021/09/16 13:11:27;;;;;;;0.60;0.60;;;;;;;35.95;23.83;98028.30;114179;1221;137184;-88
2021/09/16 13:14:12;;;;;;;0.70;0.70;;;;;;;36.02;23.49;98030.00;114174;1221;137390;-88
2021/09/16 13:16:40;;;;;;;0.80;0.80;;;;;;;35.94;23.73;98037.32;114181;1224;137880;-88
2021/09/16 13:19:07;;;;;;;0.70;0.70;;;;;;;35.97;23.69;98041.55;114005;1224;137729;-89
2021/09/16 13:21:34;;;;;;;0.90;0.90;;;;;;;36.15;23.19;98047.07;114005;1221;138138;-87
2021/09/16 13:24:02;;;;;;;0.80;0.80;;;;;;;36.27;23.25;98050.93;114117;1227;22410;-88
2021/09/16 13:26:28;;;;;;;0.70;0.70;;;;;;;36.48;23.01;98049.37;114197;1217;137409;-88
2021/09/16 13:28:55;;;;;;;0.90;0.90;;;;;;;36.61;23.03;98049.77;114199;1219;138182;-88
2021/09/16 13:31:24;;;;;;;0.80;0.80;;;;;;;36.79;22.67;98050.05;114029;1229;137500;-88
2021/09/16 13:33:51;;;;;;;0.80;0.80;;;;;;;36.87;22.53;98046.66;114227;1221;138055;-88
2021/09/16 13:36:17;;;;;;;0.90;0.90;;;;;;;36.91;22.28;98049.45;114145;1225;22310;-88
2021/09/16 13:38:43;;;;;;;0.70;0.70;;;;;;;36.97;22.02;98050.34;114167;1221;137552;-87
2021/09/16 13:41:10;;;;;;;1.10;1.10;;;;;;;37.11;22.00;98052.98;114185;1225;137388;-88
2021/09/16 13:43:36;;;;;;;0.90;0.90;;;;;;;37.37;21.89;98056.51;114041;1224;137474;-88
2021/09/16 13:46:02;;;;;;;0.90;0.90;;;;;;;37.45;21.53;98060.20;114196;1225;138296;-88
2021/09/16 13:48:27;;;;;;;0.80;0.80;;;;;;;37.42;21.43;98057.07;114092;1221;137467;-88
2021/09/16 13:50:53;;;;;;;0.90;0.90;;;;;;;37.43;21.28;98048.00;114284;1226;22381;-88
2021/09/16 13:53:19;;;;;;;0.90;0.90;;;;;;;37.49;21.13;98043.90;114228;1218;137164;-87
2021/09/16 13:55:45;;;;;;;0.90;0.90;;;;;;;37.52;20.75;98051.58;114026;1224;137471;-87
2021/09/16 13:58:10;;;;;;;0.80;0.80;;;;;;;37.60;20.57;98052.85;114289;1218;137531;-89
2021/09/16 14:00:36;;;;;;;0.90;0.90;;;;;;;37.82;20.47;98045.02;114258;1218;137487;-88
2021/09/16 14:03:01;;;;;;;0.90;0.90;;;;;;;38.14;20.27;98045.86;114398;1224;23073;-88
2021/09/16 14:05:27;;;;;;;0.90;0.90;;;;;;;38.30;20.10;98044.43;114217;1222;137531;-88
2021/09/16 14:07:52;;;;;;;0.90;0.90;;;;;;;38.45;19.83;98043.48;114338;1227;137418;-88
2021/09/16 14:10:18;;;;;;;1.00;1.00;;;;;;;38.54;19.44;98040.23;114185;1217;137442;-88
2021/09/16 14:12:46;;;;;;;1.00;1.00;;;;;;;38.67;19.47;98037.80;114281;1221;137464;-88
2021/09/16 14:15:12;;;;;;;1.00;1.00;;;;;;;38.86;19.38;98038.61;114350;1224;22344;-87
2021/09/16 14:17:38;;;;;;;1.10;1.10;;;;;;;39.00;19.23;98040.48;114174;1220;137570;-88
2021/09/16 14:20:06;;;;;;;0.90;0.90;;;;;;;39.08;19.36;98040.42;114268;1218;137403;-88
2021/09/16 14:22:31;;;;;;;0.90;0.90;;;;;;;39.08;19.20;98039.35;114069;1221;137930;-88
2021/09/16 14:24:56;;;;;;;1.00;1.00;;;;;;;39.27;19.31;98037.15;114254;1221;137574;-88
2021/09/16 14:27:22;;;;;;;1.00;1.00;;;;;;;39.49;18.97;98036.32;114436;1229;22992;-86
2021/09/16 14:29:49;;;;;;;0.80;0.80;;;;;;;39.65;18.50;98033.54;114032;1221;137282;-86
2021/09/16 14:32:56;;;;;;;0.90;0.90;;;;;;;39.86;18.44;98035.54;114359;1218;137659;-91
2021/09/16 14:44:51;;;;;;;1.00;1.00;;;;;;;41.93;17.04;98031.58;114123;1217;137552;-91
2021/09/16 14:48:38;;;;;;;;;;;;;;;;;;;;;
2021/09/16 14:53:49;;;;;;;1.20;1.20;;;;;;;43.62;14.59;98036.02;96985;1220;23235;-88
2021/09/16 14:59:59;;;;;;;1.20;1.20;;;;;;;44.31;14.49;98026.75;97078;1216;137609;-90
2021/09/16 15:05:36;;;;;;;1.40;1.40;;;;;;;45.71;13.38;98026.84;97030;1216;23032;-94
2021/09/16 15:13:22;;;;;;;1.50;1.50;;;;;;;47.13;11.79;98029.56;110836;1216;137540;-89
2021/09/16 15:15:50;;;;;;;1.30;1.30;;;;;;;47.39;11.77;98032.94;114240;1220;137727;-89
2021/09/16 15:18:19;;;;;;;1.30;1.30;;;;;;;47.15;11.69;98034.23;114387;1225;23019;-90
2021/09/16 15:20:45;;;;;;;1.40;1.40;;;;;;;47.05;11.71;98029.16;114216;1219;137189;-88
2021/09/16 15:23:41;;;;;;;1.20;1.20;;;;;;;47.32;11.81;98028.09;114324;1218;137391;-90
2021/09/16 15:26:45;;;;;;;1.10;1.10;;;;;;;47.13;11.74;98023.18;114230;1222;138123;-90
2021/09/16 15:29:47;;;;;;;1.20;1.20;;;;;;;46.09;12.20;98019.61;114419;1221;137320;-89
2021/09/16 15:35:38;;;;;;;1.10;1.10;;;;;;;44.56;13.24;98022.22;114454;1225;137579;-89
2021/09/16 15:38:20;;;;;;;0.90;0.90;;;;;;;43.68;13.82;98022.00;114297;1221;137800;-89
2021/09/16 15:41:09;;;;;;;0.90;0.90;;;;;;;42.94;14.30;98020.50;114490;1221;137840;-89
2021/09/16 15:44:22;;;;;;;1.00;1.00;;;;;;;42.36;14.84;98018.83;114486;1217;138118;-89
2021/09/16 15:47:16;;;;;;;0.90;0.90;;;;;;;41.67;15.29;98016.08;114513;1217;139083;-89
2021/09/16 15:50:22;;;;;;;0.80;0.80;;;;;;;40.91;15.86;98013.77;114527;1217;137885;-89
2021/09/16 16:04:08;;;;;;;0.80;0.80;;;;;;;37.82;19.15;98013.08;114422;1222;22336;-88
2021/09/16 16:07:14;;;;;;;0.70;0.70;;;;;;;37.26;19.69;98014.19;114154;1219;137405;-89
2021/09/16 16:09:46;;;;;;;0.70;0.70;;;;;;;36.64;20.18;98006.70;114238;1220;137621;-88
2021/09/16 16:15:30;;;;;;;0.80;0.80;;;;;;;35.87;21.15;98008.23;109975;1216;23360;-89
2021/09/16 16:18:10;;;;;;;0.60;0.60;;;;;;;35.27;21.78;98008.12;114454;1221;137186;-88
2021/09/16 16:21:35;;;;;;;0.80;0.80;;;;;;;34.72;22.24;98010.86;114593;1223;22868;-88
2021/09/16 16:24:47;;;;;;;0.60;0.60;;;;;;;34.21;23.10;98013.48;114542;1222;22360;-88
2021/09/16 16:30:45;;;;;;;0.50;0.50;;;;;;;33.19;24.59;98013.80;114133;1219;22989;-89
2021/09/16 16:34:10;;;;;;;0.60;0.60;;;;;;;32.74;25.26;98009.98;114497;1218;137581;-90
2021/09/16 16:37:36;;;;;;;0.50;0.50;;;;;;;32.23;25.92;98005.81;114390;1218;137723;-89
2021/09/16 16:51:13;;;;;;;0.60;0.60;;;;;;;30.87;29.00;98005.16;106174;1218;22348;-90
2021/09/16 16:54:43;;;;;;;0.50;0.50;;;;;;;30.56;29.45;98006.27;114303;1219;138382;-90
2021/09/16 17:03:35;;;;;;;0.40;0.40;;;;;;;29.74;30.86;97999.95;96443;1216;137771;-90
2021/09/16 17:07:07;;;;;;;0.50;0.50;;;;;;;29.44;31.41;97993.52;114325;1221;22370;-92
2021/09/16 17:10:48;;;;;;;0.40;0.40;;;;;;;29.17;31.98;97994.48;114324;1221;137352;-90
2021/09/16 17:13:54;;;;;;;;;;;;;;;28.90;32.43;97994.96;113829;1223;137634;-90
2021/09/16 17:17:20;;;;;;;0.30;0.30;;;;;;;28.66;32.62;97998.81;113829;1224;124442;-89
2021/09/16 17:20:58;;;;;;;0.50;0.50;;;;;;;28.40;33.41;97996.60;113717;1225;137489;-90
2021/09/16 17:24:24;;;;;;;0.30;0.30;;;;;;;28.10;33.92;97998.12;113956;1222;137614;-89
2021/09/16 17:27:50;;;;;;;0.40;0.40;;;;;;;27.87;34.44;98001.23;114008;1221;137504;-89
2021/09/16 17:30:53;;;;;;;0.40;0.40;;;;;;;27.65;34.79;97998.60;114376;1221;137487;-88
2021/09/16 17:34:19;;;;;;;0.40;0.40;;;;;;;27.47;35.14;98001.33;114341;1221;136417;-89
2021/09/16 17:37:45;;;;;;;0.60;0.60;;;;;;;27.30;35.59;98007.80;114408;1217;138248;-89
2021/09/16 17:41:18;;;;;;;0.50;0.50;;;;;;;27.12;36.15;98006.31;114371;1220;137315;-89
2021/09/16 17:44:20;;;;;;;0.70;0.70;;;;;;;26.90;36.61;98007.80;114224;1218;137557;-86
2021/09/16 17:46:48;;;;;;;0.50;0.50;;;;;;;26.77;36.88;98006.02;114304;1220;137998;-85
2021/09/16 17:49:17;;;;;;;0.30;0.30;;;;;;;26.64;37.06;98007.86;114299;1220;138398;-89
2021/09/16 17:51:43;;;;;;;0.30;0.30;;;;;;;26.52;37.36;98010.08;114069;1217;137679;-84
2021/09/16 17:54:08;;;;;;;0.20;0.20;;;;;;;26.40;37.62;98013.10;114407;1218;22382;-84
2021/09/16 17:56:34;;;;;;;0.20;0.20;;;;;;;26.29;37.93;98013.88;114254;1219;137979;-84
2021/09/16 17:59:00;;;;;;;0.60;0.60;;;;;;;26.16;38.02;98009.30;114414;1214;137671;-84
2021/09/16 18:01:25;;;;;;;0.50;0.50;;;;;;;26.05;38.36;98008.09;114338;1218;137554;-83
2021/09/16 18:03:51;;;;;;;0.40;0.40;;;;;;;25.94;38.70;98007.88;114263;1218;139598;-84
2021/09/16 18:06:16;;;;;;;0.40;0.40;;;;;;;25.84;38.99;98004.83;114425;1221;22348;-84